createdAt,value
2018-05-04T00:00:53.037Z,16.60
2018-05-04T00:03:22.110Z,16.60
2018-05-04T00:05:51.681Z,16.50
2018-05-04T00:08:20.795Z,16.50
2018-05-04T00:10:49.654Z,16.50
2018-05-04T00:13:18.461Z,16.40
2018-05-04T00:15:47.242Z,16.30
2018-05-04T00:18:16.283Z,16.40
2018-05-04T00:20:46.118Z,16.50
2018-05-04T00:23:14.991Z,16.50
2018-05-04T00:25:43.831Z,16.50
2018-05-04T00:28:12.854Z,16.50
2018-05-04T00:30:41.853Z,16.40
2018-05-04T00:33:11.473Z,16.40
2018-05-04T00:35:40.320Z,16.40
2018-05-04T00:38:09.152Z,16.30
2018-05-04T00:40:38.807Z,16.10
2018-05-04T00:43:07.829Z,16.10
2018-05-04T00:45:36.745Z,16.10
2018-05-04T00:48:06.329Z,16.10
2018-05-04T00:50:35.244Z,16.10
2018-05-04T00:53:04.902Z,16.10
2018-05-04T00:55:34.108Z,16.10
2018-05-04T00:58:03.075Z,16.10
2018-05-04T01:00:31.793Z,16.00
2018-05-04T01:03:00.760Z,16.00
2018-05-04T01:05:29.521Z,16.00
2018-05-04T01:07:59.222Z,16.00
2018-05-04T01:10:29.139Z,16.00
2018-05-04T01:12:58.043Z,16.00
2018-05-04T01:15:27.642Z,16.10
2018-05-04T01:17:56.447Z,16.00
2018-05-04T01:20:25.222Z,16.00
2018-05-04T01:22:54.118Z,16.00
2018-05-04T01:25:22.960Z,16.00
2018-05-04T01:27:52.635Z,16.00
2018-05-04T01:30:21.469Z,16.00
2018-05-04T01:32:51.035Z,16.10
2018-05-04T01:35:19.806Z,16.00
2018-05-04T01:37:48.636Z,16.10
2018-05-04T01:40:17.400Z,16.10
2018-05-04T01:42:46.320Z,16.10
2018-05-04T01:45:15.312Z,16.00
2018-05-04T01:47:44.076Z,15.90
2018-05-04T01:50:12.904Z,15.90
2018-05-04T01:52:41.686Z,15.80
2018-05-04T01:55:10.694Z,15.80
2018-05-04T01:57:39.468Z,15.80
2018-05-04T02:00:08.526Z,15.70
2018-05-04T02:02:37.292Z,15.70
2018-05-04T02:05:06.172Z,15.70
2018-05-04T02:07:35.762Z,15.60
2018-05-04T02:10:04.868Z,15.50
2018-05-04T02:12:34.032Z,15.60
2018-05-04T02:15:02.831Z,15.50
2018-05-04T02:17:31.696Z,15.50
2018-05-04T02:20:00.538Z,15.50
2018-05-04T02:22:29.337Z,15.50
2018-05-04T02:24:58.242Z,15.50
2018-05-04T02:27:27.047Z,15.40
2018-05-04T02:29:56.880Z,15.40
2018-05-04T02:32:25.801Z,15.40
2018-05-04T02:34:54.722Z,15.30
2018-05-04T02:37:23.741Z,15.30
2018-05-04T02:39:52.674Z,15.30
2018-05-04T02:42:21.769Z,15.20
2018-05-04T02:44:50.474Z,15.20
2018-05-04T02:47:19.336Z,15.10
2018-05-04T02:49:48.882Z,15.00
2018-05-04T02:52:17.773Z,15.00
2018-05-04T02:54:46.513Z,15.00
2018-05-04T02:57:15.805Z,15.00
2018-05-04T02:59:44.561Z,15.00
2018-05-04T03:02:13.335Z,14.90
2018-05-04T03:04:42.281Z,14.90
2018-05-04T03:07:11.010Z,14.90
2018-05-04T03:09:40.638Z,14.80
2018-05-04T03:12:10.546Z,14.80
2018-05-04T03:14:40.228Z,14.70
2018-05-04T03:17:08.988Z,14.70
2018-05-04T03:19:37.877Z,14.70
2018-05-04T03:22:07.473Z,14.70
2018-05-04T03:24:36.336Z,14.70
2018-05-04T03:27:05.262Z,14.80
2018-05-04T03:29:34.073Z,14.80
2018-05-04T03:32:02.834Z,14.80
2018-05-04T03:34:32.090Z,14.90
2018-05-04T03:37:00.889Z,14.80
2018-05-04T03:39:29.782Z,14.90
2018-05-04T03:41:58.828Z,14.90
2018-05-04T03:44:28.709Z,15.00
2018-05-04T03:46:57.540Z,15.00
2018-05-04T03:49:26.460Z,15.00
2018-05-04T03:51:55.215Z,15.10
2018-05-04T03:54:24.758Z,15.10
2018-05-04T03:57:06.311Z,15.20
2018-05-04T03:59:47.118Z,15.20
2018-05-04T04:02:27.926Z,15.20
2018-05-04T04:04:57.640Z,15.40
2018-05-04T04:07:27.323Z,15.40
2018-05-04T04:09:56.116Z,15.40
2018-05-04T04:12:24.904Z,15.50
2018-05-04T04:14:53.777Z,15.50
2018-05-04T04:17:22.628Z,15.60
2018-05-04T04:19:52.174Z,15.70
2018-05-04T04:22:21.045Z,15.70
2018-05-04T04:24:49.892Z,15.80
2018-05-04T04:27:19.474Z,15.90
2018-05-04T04:29:48.371Z,16.00
2018-05-04T04:32:17.207Z,16.00
2018-05-04T04:34:46.743Z,16.20
2018-05-04T04:37:15.717Z,16.20
2018-05-04T04:39:45.335Z,16.30
2018-05-04T04:42:14.157Z,16.30
2018-05-04T04:44:43.283Z,16.40
2018-05-04T04:47:12.932Z,16.60
2018-05-04T04:49:42.072Z,16.60
2018-05-04T04:52:10.877Z,16.60
2018-05-04T04:54:40.568Z,16.90
2018-05-04T04:57:09.357Z,16.90
2018-05-04T04:59:38.098Z,16.90
2018-05-04T05:02:06.948Z,16.90
2018-05-04T05:04:36.519Z,17.10
2018-05-04T05:07:05.306Z,17.10
2018-05-04T05:09:34.088Z,17.30
2018-05-04T05:12:02.943Z,17.30
2018-05-04T05:14:31.886Z,17.50
2018-05-04T05:17:01.484Z,17.70
2018-05-04T05:19:31.118Z,17.70
2018-05-04T05:22:00.997Z,17.90
2018-05-04T05:24:30.029Z,17.90
2018-05-04T05:26:59.057Z,18.00
2018-05-04T05:29:28.645Z,17.90
2018-05-04T05:31:58.347Z,18.00
2018-05-04T05:34:27.302Z,18.00
2018-05-04T05:36:56.154Z,18.20
2018-05-04T05:39:24.984Z,18.30
2018-05-04T05:41:53.823Z,18.50
2018-05-04T05:44:23.403Z,18.70
2018-05-04T05:46:52.248Z,18.70
2018-05-04T05:49:21.096Z,18.90
2018-05-04T05:51:50.109Z,19.10
2018-05-04T05:54:19.025Z,19.00
2018-05-04T05:56:48.408Z,19.00
2018-05-04T05:59:18.027Z,19.30
2018-05-04T06:01:46.866Z,19.30
2018-05-04T06:04:16.495Z,19.50
2018-05-04T06:06:46.043Z,19.70
2018-05-04T06:09:14.949Z,19.70
2018-05-04T06:11:43.718Z,20.00
2018-05-04T06:14:12.632Z,20.30
2018-05-04T06:16:41.463Z,20.50
2018-05-04T06:19:11.045Z,20.80
2018-05-04T06:21:40.667Z,21.00
2018-05-04T06:24:09.529Z,21.00
2018-05-04T06:26:38.521Z,21.10
2018-05-04T06:29:07.302Z,20.90
2018-05-04T06:31:36.142Z,21.20
2018-05-04T06:34:05.173Z,21.20
2018-05-04T06:36:34.209Z,21.20
2018-05-04T06:39:04.191Z,21.50
2018-05-04T06:41:33.417Z,21.50
2018-05-04T06:44:03.536Z,21.50
2018-05-04T06:46:32.310Z,21.50
2018-05-04T06:49:01.118Z,21.50
2018-05-04T06:51:30.105Z,21.50
2018-05-04T06:53:59.719Z,22.10
2018-05-04T06:56:28.436Z,22.10
2018-05-04T06:58:57.572Z,22.40
2018-05-04T07:01:27.335Z,22.70
2018-05-04T07:03:56.987Z,23.10
2018-05-04T07:06:26.014Z,23.10
2018-05-04T07:08:54.834Z,23.10
2018-05-04T07:11:23.656Z,23.30
2018-05-04T07:13:52.466Z,23.40
2018-05-04T07:16:22.089Z,23.90
2018-05-04T07:18:51.065Z,23.80
2018-05-04T07:21:19.868Z,23.80
2018-05-04T07:23:48.688Z,23.80
2018-05-04T07:26:17.734Z,23.80
2018-05-04T07:28:46.524Z,24.10
2018-05-04T07:31:16.097Z,24.20
2018-05-04T07:33:44.855Z,24.20
2018-05-04T07:36:14.650Z,24.60
2018-05-04T07:38:44.464Z,24.90
2018-05-04T07:41:14.343Z,24.60
2018-05-04T07:43:43.267Z,24.60
2018-05-04T07:46:12.159Z,24.60
2018-05-04T07:48:41.328Z,25.00
2018-05-04T07:51:10.552Z,25.40
2018-05-04T07:53:39.649Z,25.30
2018-05-04T07:56:08.535Z,25.20
2018-05-04T07:58:37.386Z,25.30
2018-05-04T08:01:06.522Z,25.20
2018-05-04T08:03:35.516Z,25.20
2018-05-04T08:06:04.346Z,25.00
2018-05-04T08:08:33.833Z,25.20
2018-05-04T08:11:02.800Z,25.10
2018-05-04T08:13:33.237Z,25.50
2018-05-04T08:16:02.298Z,25.40
2018-05-04T08:18:31.506Z,25.30
2018-05-04T08:21:00.291Z,25.20
2018-05-04T08:23:29.071Z,25.10
2018-05-04T08:25:57.989Z,25.20
2018-05-04T08:28:27.731Z,25.80
2018-05-04T08:30:56.589Z,25.80
2018-05-04T08:33:25.708Z,25.90
2018-05-04T08:35:54.528Z,26.20
2018-05-04T08:38:23.633Z,25.90
2018-05-04T08:40:52.465Z,25.80
2018-05-04T08:43:21.212Z,25.80
2018-05-04T08:45:50.862Z,26.00
2018-05-04T08:48:19.705Z,26.00
2018-05-04T08:50:48.657Z,26.00
2018-05-04T08:53:17.773Z,26.20
2018-05-04T08:55:46.676Z,26.60
2018-05-04T08:58:20.806Z,26.50
2018-05-04T09:00:50.719Z,26.70
2018-05-04T09:03:28.015Z,26.60
2018-05-04T09:05:59.783Z,26.60
2018-05-04T09:08:31.229Z,26.60
2018-05-04T09:11:00.961Z,26.60
2018-05-04T09:13:30.399Z,26.50
2018-05-04T09:15:59.410Z,26.70
2018-05-04T09:18:28.559Z,27.20
2018-05-04T09:20:59.252Z,27.10
2018-05-04T09:23:28.133Z,27.10
2018-05-04T09:25:56.948Z,27.30
2018-05-04T09:28:25.754Z,26.90
2018-05-04T09:30:54.536Z,27.10
2018-05-04T09:33:23.390Z,27.50
2018-05-04T09:35:52.185Z,27.60
2018-05-04T09:38:21.036Z,27.70
2018-05-04T09:40:50.753Z,27.80
2018-05-04T09:43:20.384Z,27.70
2018-05-04T09:45:49.264Z,27.70
2018-05-04T09:48:18.826Z,27.70
2018-05-04T09:50:47.804Z,27.60
2018-05-04T09:53:16.747Z,28.00
2018-05-04T09:55:46.635Z,28.20
2018-05-04T09:58:15.574Z,28.10
2018-05-04T10:00:44.265Z,27.70
2018-05-04T10:03:13.194Z,28.10
2018-05-04T10:05:42.022Z,28.10
2018-05-04T10:08:11.505Z,28.10
2018-05-04T10:10:41.114Z,28.40
2018-05-04T10:13:09.914Z,28.40
2018-05-04T10:15:39.447Z,28.80
2018-05-04T10:18:08.386Z,28.80
2018-05-04T10:20:37.479Z,28.30
2018-05-04T10:23:06.236Z,28.30
2018-05-04T10:25:35.059Z,28.30
2018-05-04T10:28:03.887Z,28.80
2018-05-04T10:30:33.403Z,28.90
2018-05-04T10:33:02.224Z,28.90
2018-05-04T10:35:31.118Z,28.90
2018-05-04T10:37:59.916Z,29.00
2018-05-04T10:40:29.175Z,28.70
2018-05-04T10:42:57.938Z,28.60
2018-05-04T10:45:27.561Z,28.60
2018-05-04T10:47:56.453Z,28.50
2018-05-04T10:50:26.046Z,28.20
2018-05-04T10:52:55.621Z,28.30
2018-05-04T10:55:26.094Z,28.20
2018-05-04T10:57:54.998Z,28.00
2018-05-04T11:00:23.929Z,28.00
2018-05-04T11:02:52.738Z,28.20
2018-05-04T11:05:21.629Z,28.30
2018-05-04T11:07:50.676Z,28.30
2018-05-04T11:10:19.649Z,28.60
2018-05-04T11:12:49.255Z,28.70
2018-05-04T11:15:18.249Z,28.60
2018-05-04T11:17:47.035Z,28.90
2018-05-04T11:20:15.856Z,28.50
2018-05-04T11:22:44.568Z,28.20
2018-05-04T11:25:13.395Z,28.30
2018-05-04T11:27:42.301Z,28.60
2018-05-04T11:30:11.087Z,28.40
2018-05-04T11:32:39.871Z,28.30
2018-05-04T11:35:09.523Z,28.60
2018-05-04T11:37:38.376Z,28.60
2018-05-04T11:40:07.212Z,28.40
2018-05-04T11:42:36.846Z,28.40
2018-05-04T11:45:06.829Z,28.50
2018-05-04T11:47:35.594Z,28.50
2018-05-04T11:50:04.606Z,28.50
2018-05-04T11:52:33.355Z,28.20
2018-05-04T11:55:02.961Z,28.20
2018-05-04T11:57:32.052Z,28.10
2018-05-04T12:00:00.989Z,28.10
2018-05-04T12:02:29.950Z,27.90
2018-05-04T12:04:59.042Z,28.20
2018-05-04T12:07:27.951Z,28.10
2018-05-04T12:09:57.021Z,28.20
2018-05-04T12:12:25.909Z,27.80
2018-05-04T12:14:54.993Z,27.80
2018-05-04T12:17:24.807Z,28.30
2018-05-04T12:19:54.342Z,28.10
2018-05-04T12:22:23.066Z,28.10
2018-05-04T12:24:52.695Z,28.00
2018-05-04T12:27:22.250Z,28.10
2018-05-04T12:29:51.326Z,28.10
2018-05-04T12:32:21.037Z,28.10
2018-05-04T12:34:50.867Z,28.00
2018-05-04T12:37:19.728Z,28.00
2018-05-04T12:39:49.297Z,27.50
2018-05-04T12:42:18.296Z,27.40
2018-05-04T12:44:47.350Z,27.60
2018-05-04T12:47:16.128Z,27.80
2018-05-04T12:49:44.996Z,27.60
2018-05-04T12:52:14.496Z,27.10
2018-05-04T12:54:43.333Z,27.00
2018-05-04T12:57:12.098Z,26.80
2018-05-04T12:59:41.098Z,26.60
2018-05-04T13:02:10.358Z,26.60
2018-05-04T13:04:39.884Z,26.50
2018-05-04T13:07:10.410Z,26.30
2018-05-04T13:09:39.350Z,26.30
2018-05-04T13:12:08.159Z,26.00
2018-05-04T13:14:37.245Z,26.00
2018-05-04T13:17:06.059Z,25.90
2018-05-04T13:19:35.698Z,25.60
2018-05-04T13:22:04.791Z,25.60
2018-05-04T13:24:34.449Z,25.30
2018-05-04T13:27:03.760Z,25.30
2018-05-04T13:29:32.867Z,25.20
2018-05-04T13:32:02.424Z,25.10
2018-05-04T13:34:31.267Z,25.10
2018-05-04T13:37:01.161Z,24.90
2018-05-04T13:39:30.347Z,24.90
2018-05-04T13:41:59.294Z,24.90
2018-05-04T13:44:28.123Z,24.70
2018-05-04T13:46:57.087Z,24.70
2018-05-04T13:49:25.851Z,24.70
2018-05-04T13:51:54.799Z,24.80
2018-05-04T13:54:23.589Z,24.80
2018-05-04T13:56:52.387Z,24.90
2018-05-04T13:59:21.088Z,24.70
2018-05-04T14:01:50.239Z,24.50
2018-05-04T14:04:19.150Z,24.40
2018-05-04T14:06:48.020Z,24.50
2018-05-04T14:09:18.419Z,24.50
2018-05-04T14:11:47.335Z,24.40
2018-05-04T14:14:16.322Z,24.40
2018-05-04T14:16:46.178Z,24.40
2018-05-04T14:19:16.110Z,24.40
2018-05-04T14:21:44.946Z,24.40
2018-05-04T14:24:13.856Z,24.20
2018-05-04T14:26:43.175Z,23.90
2018-05-04T14:29:12.064Z,23.80
2018-05-04T14:31:40.901Z,23.80
2018-05-04T14:34:09.689Z,23.70
2018-05-04T14:36:38.604Z,23.60
2018-05-04T14:39:07.927Z,23.60
2018-05-04T14:41:37.626Z,23.60
2018-05-04T14:44:07.877Z,23.50
2018-05-04T14:46:36.618Z,23.50
2018-05-04T14:49:05.515Z,23.40
2018-05-04T14:51:34.339Z,23.30
2018-05-04T14:54:03.182Z,23.30
2018-05-04T14:56:32.149Z,23.10
2018-05-04T14:59:00.926Z,23.10
2018-05-04T15:01:30.468Z,23.10
2018-05-04T15:03:59.364Z,23.10
2018-05-04T15:06:28.239Z,23.00
2018-05-04T15:08:57.475Z,22.80
2018-05-04T15:11:27.051Z,22.80
2018-05-04T15:13:55.906Z,22.80
2018-05-04T15:16:24.938Z,22.80
2018-05-04T15:18:54.664Z,22.70
2018-05-04T15:21:23.466Z,22.70
2018-05-04T15:23:53.217Z,22.20
2018-05-04T15:26:23.295Z,22.10
2018-05-04T15:28:52.937Z,22.00
2018-05-04T15:31:22.014Z,22.10
2018-05-04T15:33:50.892Z,21.90
2018-05-04T15:36:19.817Z,21.90
2018-05-04T15:38:48.536Z,21.80
2018-05-04T15:41:17.311Z,21.60
2018-05-04T15:43:46.255Z,21.50
2018-05-04T15:46:16.570Z,21.60
2018-05-04T15:48:51.438Z,21.60
2018-05-04T15:51:25.942Z,21.40
2018-05-04T15:53:54.736Z,21.40
2018-05-04T15:56:23.580Z,21.40
2018-05-04T15:58:53.698Z,21.20
2018-05-04T16:01:23.210Z,21.30
2018-05-04T16:03:53.251Z,21.30
2018-05-04T16:06:22.132Z,21.30
2018-05-04T16:08:50.931Z,21.30
2018-05-04T16:11:20.025Z,21.30
2018-05-04T16:13:49.609Z,21.30
2018-05-04T16:16:18.456Z,21.30
2018-05-04T16:18:47.412Z,21.20
2018-05-04T16:21:16.184Z,21.00
2018-05-04T16:23:45.150Z,21.00
2018-05-04T16:26:13.897Z,21.10
2018-05-04T16:28:43.503Z,21.00
2018-05-04T16:31:12.389Z,20.90
2018-05-04T16:33:41.251Z,20.90
2018-05-04T16:36:10.060Z,20.90
2018-05-04T16:38:38.881Z,20.80
2018-05-04T16:41:08.456Z,20.70
2018-05-04T16:43:37.444Z,20.70
2018-05-04T16:46:06.538Z,20.70
2018-05-04T16:48:41.143Z,20.70
2018-05-04T16:51:10.976Z,20.70
2018-05-04T16:53:39.985Z,20.60
2018-05-04T16:56:09.750Z,20.50
2018-05-04T16:58:38.716Z,20.50
2018-05-04T17:01:08.246Z,20.40
2018-05-04T17:03:38.460Z,20.30
2018-05-04T17:06:07.437Z,20.30
2018-05-04T17:08:36.262Z,20.10
2018-05-04T17:11:06.020Z,20.10
2018-05-04T17:13:35.700Z,19.90
2018-05-04T17:16:04.719Z,19.90
2018-05-04T17:18:34.725Z,19.70
2018-05-04T17:21:04.371Z,19.60
2018-05-04T17:23:34.062Z,19.60
2018-05-04T17:26:03.146Z,19.60
2018-05-04T17:28:33.795Z,19.60
2018-05-04T17:31:03.694Z,19.50
2018-05-04T17:33:33.245Z,19.40
2018-05-04T17:36:02.278Z,19.40
2018-05-04T17:38:32.477Z,19.30
2018-05-04T17:41:01.315Z,19.20
2018-05-04T17:43:30.989Z,18.90
2018-05-04T17:46:00.969Z,18.90
2018-05-04T17:48:29.987Z,18.80
2018-05-04T17:50:58.962Z,18.80
2018-05-04T17:53:28.004Z,18.70
2018-05-04T17:55:58.732Z,18.60
2018-05-04T17:58:27.912Z,18.60
2018-05-04T18:00:56.956Z,18.50
2018-05-04T18:03:26.534Z,18.60
2018-05-04T18:05:58.475Z,18.50
2018-05-04T18:08:27.734Z,18.50
2018-05-04T18:10:57.650Z,18.30
2018-05-04T18:13:27.814Z,18.30
2018-05-04T18:15:57.560Z,18.30
2018-05-04T18:18:27.026Z,18.30
2018-05-04T18:20:56.544Z,18.20
2018-05-04T18:23:26.195Z,18.10
2018-05-04T18:25:55.805Z,18.10
2018-05-04T18:28:25.337Z,18.10
2018-05-04T18:30:55.677Z,18.00
2018-05-04T18:33:26.402Z,18.00
2018-05-04T18:35:56.812Z,18.00
2018-05-04T18:38:26.568Z,18.00
2018-05-04T18:40:56.118Z,18.00
2018-05-04T18:43:26.586Z,17.90
2018-05-04T18:45:56.374Z,17.90
2018-05-04T18:48:26.554Z,17.90
2018-05-04T18:50:56.439Z,17.70
2018-05-04T18:53:26.077Z,17.70
2018-05-04T18:55:55.770Z,17.70
2018-05-04T18:58:25.414Z,17.70
2018-05-04T19:00:56.075Z,17.70
2018-05-04T19:03:25.772Z,17.60
2018-05-04T19:05:56.252Z,17.60
2018-05-04T19:08:26.113Z,17.60
2018-05-04T19:10:56.504Z,17.50
2018-05-04T19:13:26.173Z,17.50
2018-05-04T19:15:55.787Z,17.50
2018-05-04T19:18:25.604Z,17.50
2018-05-04T19:20:55.291Z,17.50
2018-05-04T19:23:25.601Z,17.40
2018-05-04T19:25:55.219Z,17.40
2018-05-04T19:28:24.874Z,17.30
2018-05-04T19:30:54.655Z,17.30
2018-05-04T19:33:25.060Z,17.30
2018-05-04T19:35:54.742Z,17.30
2018-05-04T19:38:24.400Z,17.30
2018-05-04T19:40:54.313Z,17.30
2018-05-04T19:43:24.710Z,17.10
2018-05-04T19:45:54.352Z,17.10
2018-05-04T19:48:23.949Z,17.10
2018-05-04T19:50:53.814Z,17.10
2018-05-04T19:53:23.356Z,17.00
2018-05-04T19:55:52.906Z,17.00
2018-05-04T19:58:23.473Z,16.90
2018-05-04T20:00:54.167Z,17.00
2018-05-04T20:03:26.345Z,17.00
2018-05-04T20:05:56.240Z,17.10
2018-05-04T20:08:25.847Z,17.00
2018-05-04T20:10:56.570Z,17.20
2018-05-04T20:13:26.449Z,17.10
2018-05-04T20:15:56.093Z,17.10
2018-05-04T20:18:25.672Z,17.10
2018-05-04T20:20:55.470Z,17.10
2018-05-04T20:23:28.841Z,17.10
2018-05-04T20:25:59.679Z,17.10
2018-05-04T20:28:29.370Z,17.10
2018-05-04T20:30:59.020Z,17.10
2018-05-04T20:33:28.709Z,17.00
2018-05-04T20:35:59.311Z,17.00
2018-05-04T20:38:29.069Z,17.00
2018-05-04T20:40:59.726Z,16.90
2018-05-04T20:43:30.175Z,17.00
2018-05-04T20:46:00.636Z,16.90
2018-05-04T20:48:31.055Z,16.80
2018-05-04T20:51:00.587Z,16.80
2018-05-04T20:53:31.726Z,16.80
2018-05-04T20:56:02.195Z,16.80
2018-05-04T20:58:31.846Z,16.90
2018-05-04T21:01:01.453Z,16.80
2018-05-04T21:03:31.300Z,16.70
2018-05-04T21:06:01.984Z,16.70
2018-05-04T21:08:31.835Z,16.70
2018-05-04T21:11:01.499Z,16.80
2018-05-04T21:13:31.117Z,16.80
2018-05-04T21:16:00.623Z,16.80
2018-05-04T21:18:30.269Z,16.70
2018-05-04T21:21:00.059Z,16.80
2018-05-04T21:23:29.790Z,16.70
2018-05-04T21:25:59.282Z,16.60
2018-05-04T21:28:28.583Z,16.60
2018-05-04T21:30:58.574Z,16.50
2018-05-04T21:33:27.523Z,16.50
2018-05-04T21:35:56.611Z,16.50
2018-05-04T21:38:25.464Z,16.50
2018-05-04T21:40:55.056Z,16.40
2018-05-04T21:43:23.786Z,16.40
2018-05-04T21:45:52.835Z,16.50
2018-05-04T21:48:22.395Z,16.40
2018-05-04T21:50:51.198Z,16.40
2018-05-04T21:53:20.204Z,16.40
2018-05-04T21:55:49.091Z,16.40
2018-05-04T21:58:17.908Z,16.40
2018-05-04T22:00:47.560Z,16.40
2018-05-04T22:03:16.484Z,16.30
2018-05-04T22:05:45.314Z,16.30
2018-05-04T22:08:15.289Z,16.30
2018-05-04T22:10:44.303Z,16.20
2018-05-04T22:13:14.150Z,16.20
2018-05-04T22:15:42.950Z,16.20
2018-05-04T22:18:13.468Z,16.10
2018-05-04T22:20:42.315Z,16.10
2018-05-04T22:23:11.101Z,16.00
2018-05-04T22:25:39.938Z,16.10
2018-05-04T22:28:08.759Z,16.10
2018-05-04T22:30:38.560Z,16.10
2018-05-04T22:33:07.370Z,16.00
2018-05-04T22:35:36.199Z,16.00
2018-05-04T22:38:04.987Z,16.00
2018-05-04T22:40:34.614Z,16.00
2018-05-04T22:43:03.829Z,16.00
2018-05-04T22:45:32.975Z,15.90
2018-05-04T22:48:02.909Z,15.80
2018-05-04T22:50:31.695Z,15.70
2018-05-04T22:53:00.436Z,15.70
2018-05-04T22:55:29.397Z,15.70
2018-05-04T22:57:58.295Z,15.70
2018-05-04T23:00:27.197Z,15.70
2018-05-04T23:02:56.063Z,15.70
2018-05-04T23:05:24.845Z,15.80
2018-05-04T23:07:54.423Z,15.80
2018-05-04T23:10:23.358Z,15.70
2018-05-04T23:12:52.190Z,15.80
2018-05-04T23:15:21.742Z,15.90
2018-05-04T23:17:51.618Z,15.80
2018-05-04T23:20:20.455Z,15.80
2018-05-04T23:22:49.434Z,15.80
2018-05-04T23:25:18.172Z,15.90
2018-05-04T23:27:46.993Z,15.90
2018-05-04T23:30:15.916Z,16.00
2018-05-04T23:32:45.603Z,16.10
2018-05-04T23:35:15.112Z,16.10
2018-05-04T23:37:48.967Z,16.10
2018-05-04T23:40:17.766Z,16.10
2018-05-04T23:42:46.570Z,16.10
2018-05-04T23:45:16.125Z,16.10
2018-05-04T23:47:44.922Z,16.10
2018-05-04T23:50:13.749Z,16.10
2018-05-04T23:52:42.485Z,16.10
2018-05-04T23:55:11.534Z,16.10
2018-05-04T23:57:41.222Z,16.10
